Terminal Aerodrome Forecast
Issued by NWS Sterling, VA

Home | Current Version | Previous Version | Text Only | Print | Product List | Glossary On
Versions: 1 2 3 4 5 6 7 8 9 10 11 12 13 14 15 16 17 18 19 20 21 22 23
959
FTUS41 KLWX 091736
TAFBWI
TAF
KBWI 091736Z 0918/1024 30016G26KT P6SM FEW050
     FM092300 29013G20KT P6SM FEW050
     FM100800 29009KT P6SM SCT150
     FM101500 28011G18KT P6SM SCT050=

USA.gov is the U.S. government's official web portal to all federal, state and local government web resources and services.